Data for 01/12/2017

Time Sea-Level Adjusted Pressure Absolute Pressure Temperature Relative Humidity Dew Point   
(mb) (inHg) (mb) (inHg) (C) (F) (%) (C) (F)
00:05 1012 29.88 842 24.86 -14.1 6.6 81 -16.7 1.9
00:10 1012 29.88 842 24.86 -14.2 6.4 81 -16.7 1.9
00:15 1013 29.91 842 24.86 -14.4 6 82 -16.9 1.7
00:20 1013 29.91 842 24.86 -14.5 5.9 82 -16.9 1.6
00:25 1013 29.91 842 24.86 -14.6 5.7 83 -16.9 1.6
00:30 1013 29.91 842 24.86 -14.6 5.7 84 -16.8 1.8
00:35 1013 29.91 842 24.86 -14.5 5.9 83 -16.8 1.7
00:40 1013 29.91 842 24.86 -14.6 5.7 82 -17 1.3
00:45 1013 29.91 842 24.86 -14.7 5.5 83 -17 1.4
00:50 1013 29.91 842 24.86 -14.8 5.5 83 -17.1 1.3
00:55 1013 29.91 842 24.86 -14.7 5.5 83 -17.1 1.2
01:00 1013 29.91 842 24.86 -14.7 5.5 83 -17 1.4
01:05 1013 29.91 842 24.86 -14.6 5.7 83 -16.9 1.5
01:10 1013 29.91 842 24.86 -14.6 5.8 83 -16.9 1.6
01:15 1013 29.91 842 24.86 -14.5 5.9 83 -16.8 1.8
01:20 1013 29.91 842 24.86 -14.4 6.1 82 -16.8 1.7
01:25 1013 29.91 842 24.86 -14.5 5.9 82 -17 1.5
01:30 1013 29.91 843 24.89 -14.6 5.8 82 -17 1.4
01:35 1013 29.91 843 24.89 -14.6 5.8 82 -16.9 1.5
01:40 1013 29.91 842 24.86 -14.5 5.9 82 -17 1.5
01:45 1013 29.91 842 24.86 -14.5 5.9 83 -16.8 1.7
01:50 1013 29.91 843 24.89 -14.4 6 83 -16.8 1.8
01:55 1013 29.91 843 24.89 -14.4 6.2 83 -16.7 2
02:00 1014 29.94 843 24.89 -14.3 6.2 83 -16.7 2
02:05 1014 29.94 843 24.89 -14.3 6.3 83 -16.5 2.2
02:10 1014 29.94 843 24.89 -14.1 6.7 82 -16.5 2.3
02:15 1014 29.94 843 24.89 -14 6.8 82 -16.4 2.4
02:20 1014 29.94 843 24.89 -14 6.7 82 -16.5 2.4
02:25 1014 29.94 843 24.89 -14.1 6.6 83 -16.5 2.4
02:30 1014 29.94 843 24.89 -14 6.8 82 -16.4 2.4
02:35 1014 29.94 843 24.89 -14 6.9 82 -16.4 2.4
02:40 1014 29.94 843 24.89 -14 6.8 82 -16.5 2.3
02:45 1014 29.94 844 24.92 -14.1 6.6 81 -16.6 2
02:50 1014 29.94 844 24.92 -14.3 6.2 83 -16.7 2
02:55 1014 29.94 844 24.92 -14.4 6.1 83 -16.7 2
03:00 1015 29.97 844 24.92 -14.5 5.8 83 -16.8 1.8
03:05 1015 29.97 844 24.92 -14.5 5.8 84 -16.7 1.9
03:10 1015 29.97 844 24.92 -14.4 6.1 84 -16.6 2.1
03:15 1015 29.97 844 24.92 -14.4 6.2 84 -16.5 2.2
03:20 1015 29.97 844 24.92 -14.3 6.3 83 -16.6 2.2
03:25 1015 29.97 844 24.92 -14.3 6.2 83 -16.5 2.2
03:30 1015 29.97 844 24.92 -14.4 6.1 84 -16.5 2.2
03:35 1015 29.97 844 24.92 -14.3 6.3 84 -16.4 2.4
03:40 1015 29.97 844 24.92 -14.3 6.3 84 -16.5 2.3
03:45 1015 29.97 844 24.92 -14.3 6.3 84 -16.5 2.3
03:50 1015 29.97 844 24.92 -14.2 6.4 84 -16.5 2.4
03:55 1015 29.97 845 24.95 -14.2 6.5 84 -16.3 2.6
04:00 1015 29.97 845 24.95 -14.1 6.6 84 -16.3 2.7
04:05 1015 29.97 845 24.95 -14.1 6.6 84 -16.3 2.7
04:10 1015 29.97 845 24.95 -14.1 6.5 83 -16.4 2.5
04:15 1015 29.97 845 24.95 -14.2 6.5 83 -16.4 2.5
04:20 1015 29.97 845 24.95 -14.3 6.3 84 -16.4 2.5
04:25 1015 29.97 845 24.95 -14.3 6.3 84 -16.5 2.4
04:30 1015 29.97 845 24.95 -14.3 6.2 84 -16.5 2.4
04:35 1015 29.97 845 24.95 -14.3 6.2 84 -16.5 2.3
04:40 1015 29.97 845 24.95 -14.3 6.3 84 -16.5 2.4
04:45 1015 29.97 845 24.95 -14.3 6.4 84 -16.4 2.4
04:50 1015 29.97 845 24.95 -14.3 6.3 84 -16.5 2.3
04:55 1015 29.97 845 24.95 -14.3 6.3 84 -16.5 2.3
05:00 1016 30 845 24.95 -14.3 6.3 83 -16.6 2.1
05:05 1016 30 845 24.95 -14.3 6.2 83 -16.6 2.2
05:10 1016 30 845 24.95 -14.3 6.2 83 -16.6 2.2
05:15 1016 30 845 24.95 -14.4 6.1 83 -16.6 2.1
05:20 1016 30 845 24.95 -14.5 6 84 -16.7 2
05:25 1016 30 845 24.95 -14.5 5.8 84 -16.7 1.9
05:30 1016 30 845 24.95 -14.6 5.7 84 -16.8 1.7
05:35 1016 30 845 24.95 -14.7 5.5 84 -16.9 1.6
05:40 1016 30 845 24.95 -14.8 5.4 84 -16.9 1.5
05:45 1016 30 845 24.95 -14.8 5.4 84 -16.9 1.5
05:50 1016 30 845 24.95 -14.8 5.3 83 -17.1 1.3
05:55 1016 30 845 24.95 -14.9 5.1 84 -17 1.3
06:00 1016 30 845 24.95 -15 4.9 85 -17.1 1.3
06:05 1016 30 845 24.95 -15 4.9 85 -17.1 1.3
06:10 1016 30 845 24.95 -15 5.1 84 -17 1.3
06:15 1016 30 845 24.95 -15.1 4.9 85 -17.1 1.2
06:20 1016 30 845 24.95 -15.2 4.7 85 -17.1 1.1
06:25 1016 30 845 24.95 -15.1 4.8 85 -17.1 1.2
06:30 1016 30 845 24.95 -15 5 85 -17 1.5
06:35 1016 30 845 24.95 -14.9 5.2 85 -17 1.5
06:40 1016 30 845 24.95 -15 5 85 -17 1.4
06:45 1016 30 845 24.95 -14.8 5.3 84 -16.9 1.5
06:50 1016 30 845 24.95 -14.8 5.4 84 -16.9 1.5
06:55 1016 30 845 24.95 -14.8 5.4 84 -16.9 1.5
07:00 1016 30 845 24.95 -14.7 5.6 84 -16.9 1.7
07:05 1016 30 845 24.95 -14.6 5.7 83 -16.9 1.7
07:10 1016 30 845 24.95 -14.7 5.6 83 -16.9 1.6
07:15 1016 30 846 24.98 -14.8 5.3 83 -17 1.3
07:20 1016 30 846 24.98 -15 5.1 85 -16.9 1.5
07:25 1016 30 846 24.98 -14.8 5.4 84 -16.9 1.7
07:30 1017 30.03 846 24.98 -14.7 5.5 84 -16.8 1.7
07:35 1017 30.03 846 24.98 -14.8 5.4 84 -16.9 1.6
07:40 1017 30.03 846 24.98 -14.8 5.3 84 -17 1.5
07:45 1017 30.03 846 24.98 -14.8 5.3 84 -17 1.5
07:50 1017 30.03 846 24.98 -14.8 5.4 84 -16.9 1.6
07:55 1017 30.03 846 24.98 -14.8 5.4 84 -16.9 1.6
08:00 1017 30.03 846 24.98 -14.8 5.4 84 -16.9 1.6
08:05 1017 30.03 846 24.98 -14.8 5.4 84 -17 1.4
08:10 1017 30.03 846 24.98 -14.8 5.3 84 -17 1.5
08:15 1017 30.03 846 24.98 -14.8 5.4 84 -16.9 1.6
08:20 1017 30.03 846 24.98 -14.8 5.4 84 -16.9 1.6
08:25 1017 30.03 846 24.98 -14.7 5.6 84 -16.9 1.6
08:30 1017 30.03 846 24.98 -14.7 5.6 84 -16.9 1.6
08:35 1017 30.03 846 24.98 -14.7 5.6 83 -17 1.5
08:40 1017 30.03 846 24.98 -14.7 5.5 83 -17 1.4
08:45 1017 30.03 846 24.98 -14.7 5.6 83 -16.9 1.6
08:50 1017 30.03 846 24.98 -14.6 5.8 83 -16.9 1.6
08:55 1017 30.03 846 24.98 -14.6 5.7 83 -17 1.5
09:00 1017 30.03 846 24.98 -14.6 5.6 82 -17 1.4
09:05 1017 30.03 846 24.98 -14.6 5.7 82 -17 1.4
09:10 1017 30.03 846 24.98 -14.6 5.8 83 -16.9 1.6
09:15 1017 30.03 846 24.98 -14.5 5.9 82 -16.9 1.5
09:20 1017 30.03 846 24.98 -14.5 6 82 -16.9 1.6
09:25 1017 30.03 846 24.98 -14.3 6.2 82 -16.8 1.8
09:30 1017 30.03 846 24.98 -14.2 6.4 82 -16.7 2
09:35 1017 30.03 846 24.98 -14.1 6.7 81 -16.7 2
09:40 1017 30.03 846 24.98 -14 6.8 81 -16.6 2.2
09:45 1017 30.03 846 24.98 -13.8 7.2 81 -16.4 2.5
09:50 1017 30.03 846 24.98 -13.5 7.7 81 -16.2 2.9
09:55 1017 30.03 847 25.01 -13.3 8 80 -16 3.2
10:00 1017 30.03 847 25.01 -13.1 8.4 81 -15.8 3.6
10:05 1018 30.06 847 25.01 -12.8 9 79 -15.7 3.7
10:10 1018 30.06 847 25.01 -12.6 9.3 79 -15.6 3.9
10:15 1018 30.06 847 25.01 -12.5 9.5 78 -15.6 3.9
10:20 1018 30.06 847 25.01 -12.5 9.6 77 -15.7 3.8
10:25 1018 30.06 847 25.01 -12.3 9.9 76 -15.7 3.8
10:30 1018 30.06 847 25.01 -12.2 10 77 -15.5 4.1
10:35 1018 30.06 847 25.01 -12 10.5 75 -15.5 4.2
10:40 1018 30.06 847 25.01 -11.7 10.9 75 -15.4 4.3
10:45 1018 30.06 847 25.01 -11.6 11.1 74 -15.4 4.3
10:50 1018 30.06 847 25.01 -11.6 11.2 74 -15.4 4.3
10:55 1018 30.06 847 25.01 -11.7 10.9 74 -15.4 4.3
11:00 1018 30.06 847 25.01 -11.7 11 74 -15.4 4.2
11:05 1018 30.06 847 25.01 -11.4 11.4 72 -15.5 4.1
11:10 1018 30.06 847 25.01 -11.1 12 72 -15.2 4.6
11:15 1018 30.06 847 25.01 -10.6 12.9 71 -14.9 5.2
11:20 1018 30.06 847 25.01 -11.2 11.9 73 -15.1 4.9
11:25 1018 30.06 847 25.01 -11.4 11.5 75 -15 4.9
11:30 1018 30.06 847 25.01 -11.2 11.9 73 -15.1 4.8
11:35 1018 30.06 847 25.01 -10.2 13.6 67 -15.2 4.6
11:40 1018 30.06 847 25.01 -10.2 13.6 67 -15.2 4.6
11:45 1018 30.06 847 25.01 -10.2 13.7 68 -15 5
11:50 1018 30.06 848 25.04 -9.7 14.6 67 -14.7 5.6
11:55 1018 30.06 848 25.04 -9.2 15.5 65 -14.7 5.6
12:00 1018 30.06 848 25.04 -8.8 16.2 63 -14.7 5.5
12:05 1018 30.06 848 25.04 -8.8 16.2 62 -14.7 5.5
12:10 1018 30.06 848 25.04 -8.7 16.4 63 -14.6 5.7
12:15 1018 30.06 848 25.04 -8.8 16.1 63 -14.6 5.8
12:20 1018 30.06 848 25.04 -8.6 16.5 61 -14.9 5.2
12:25 1018 30.06 848 25.04 -8.4 16.8 60 -14.8 5.3
12:30 1018 30.06 847 25.01 -8.4 17 59 -15 5.1
12:35 1018 30.06 847 25.01 -8.3 17.1 59 -14.9 5.1
12:40 1018 30.06 847 25.01 -8.6 16.6 59 -15.1 4.8
12:45 1018 30.06 847 25.01 -8.2 17.2 59 -14.9 5.2
12:50 1018 30.06 847 25.01 -9.1 15.6 64 -14.7 5.6
12:55 1018 30.06 847 25.01 -9.6 14.7 64 -15.1 4.8
13:00 1018 30.06 847 25.01 -9.4 15.2 62 -15.4 4.4
13:05 1018 30.06 847 25.01 -8.9 16 61 -15.2 4.7
13:10 1018 30.06 847 25.01 -9 15.8 61 -15.2 4.6
13:15 1018 30.06 847 25.01 -8.9 15.9 60 -15.3 4.5
13:20 1018 30.06 847 25.01 -8.6 16.6 60 -15.1 4.8
13:25 1018 30.06 847 25.01 -8.8 16.3 61 -15 4.9
13:30 1018 30.06 847 25.01 -8.5 16.6 59 -15.1 4.8
13:35 1018 30.06 847 25.01 -8.3 17 58 -15.2 4.7
13:40 1018 30.06 847 25.01 -8.4 16.8 59 -15 5
13:45 1018 30.06 847 25.01 -8.3 17.2 58 -15.2 4.6
13:50 1018 30.06 847 25.01 -7.9 17.8 57 -14.9 5.1
13:55 1017 30.03 847 25.01 -7.8 18 57 -14.8 5.3
14:00 1017 30.03 847 25.01 -8.1 17.3 59 -14.7 5.5
14:05 1018 30.06 847 25.01 -8.1 17.4 58 -14.9 5.2
14:10 1017 30.03 847 25.01 -7.9 17.9 57 -14.9 5.3
14:15 1018 30.06 847 25.01 -7.6 18.3 56 -15 5
14:20 1017 30.03 847 25.01 -8.4 16.9 59 -15.1 4.8
14:25 1018 30.06 847 25.01 -8.5 16.6 60 -15 5
14:30 1018 30.06 847 25.01 -7.9 17.7 58 -14.8 5.4
14:35 1018 30.06 847 25.01 -8.5 16.8 62 -14.4 6
14:40 1018 30.06 847 25.01 -9 15.9 62 -14.9 5.2
14:45 1017 30.03 847 25.01 -8.7 16.3 60 -15.2 4.7
14:50 1017 30.03 847 25.01 -8.2 17.3 59 -14.9 5.2
14:55 1017 30.03 846 24.98 -7.7 18.2 57 -14.9 5.2
15:00 1017 30.03 846 24.98 -7.9 17.7 60 -14.5 6
15:05 1017 30.03 846 24.98 -8.1 17.5 58 -14.9 5.2
15:10 1017 30.03 847 25.01 -7.6 18.3 57 -14.7 5.5
15:15 1017 30.03 847 25.01 -7.5 18.6 58 -14.4 6.2
15:20 1017 30.03 847 25.01 -7.2 19.1 56 -14.5 5.9
15:25 1017 30.03 847 25.01 -7 19.3 55 -14.6 5.8
15:30 1017 30.03 847 25.01 -7.1 19.2 58 -14 6.8
15:35 1017 30.03 847 25.01 -7.3 19 59 -14 6.8
15:40 1017 30.03 847 25.01 -7.4 18.7 58 -14.4 6.1
15:45 1018 30.06 847 25.01 -6.8 19.8 55 -14.4 6
15:50 1018 30.06 847 25.01 -7 19.4 55 -14.6 5.7
15:55 1018 30.06 847 25.01 -7 19.5 56 -14.4 6.1
16:00 1018 30.06 847 25.01 -6.4 20.4 54 -14.4 6.2
16:05 1018 30.06 847 25.01 -6.8 19.8 55 -14.5 6
16:10 1018 30.06 847 25.01 -6.8 19.8 56 -14.3 6.3
16:15 1018 30.06 847 25.01 -6.6 20.2 54 -14.3 6.3
16:20 1018 30.06 847 25.01 -6.7 20 55 -14.4 6.1
16:25 1018 30.06 847 25.01 -7.4 18.7 58 -14.2 6.4
16:30 1018 30.06 847 25.01 -8 17.5 59 -14.6 5.7
16:35 1018 30.06 847 25.01 -8.3 17 60 -14.7 5.5
16:40 1018 30.06 847 25.01 -7.8 18 57 -14.8 5.4
16:45 1018 30.06 847 25.01 -7.8 17.9 58 -14.6 5.7
16:50 1018 30.06 847 25.01 -7.6 18.4 58 -14.5 6
16:55 1018 30.06 847 25.01 -8 17.5 59 -14.6 5.7
17:00 1018 30.06 847 25.01 -7.5 18.5 57 -14.7 5.5
17:05 1018 30.06 847 25.01 -7.3 19 57 -14.5 5.9
17:10 1018 30.06 847 25.01 -7.7 18.2 59 -14.2 6.4
17:15 1018 30.06 847 25.01 -7.7 18.1 58 -14.6 5.7
17:20 1018 30.06 848 25.04 -7.4 18.7 57 -14.5 5.9
17:25 1018 30.06 848 25.04 -7.6 18.3 59 -14.4 6.1
17:30 1018 30.06 848 25.04 -8.2 17.3 61 -14.4 6
17:35 1018 30.06 848 25.04 -8.3 17.1 60 -14.7 5.6
17:40 1018 30.06 848 25.04 -8.7 16.4 62 -14.6 5.7
17:45 1018 30.06 848 25.04 -9 15.8 63 -14.9 5.3
17:50 1018 30.06 848 25.04 -9 15.7 63 -14.9 5.2
17:55 1018 30.06 848 25.04 -9.7 14.5 67 -14.8 5.4
18:00 1018 30.06 848 25.04 -10.3 13.5 69 -15 5
18:05 1018 30.06 847 25.01 -10.5 13.1 70 -15 5
18:10 1018 30.06 847 25.01 -10.6 12.9 69 -15.2 4.6
18:15 1018 30.06 848 25.04 -10.9 12.5 71 -15.1 4.8
18:20 1018 30.06 848 25.04 -10.9 12.5 71 -15.1 4.8
18:25 1018 30.06 848 25.04 -11 12.2 72 -15.1 4.8
18:30 1019 30.09 848 25.04 -11.4 11.6 75 -14.9 5.1
18:35 1019 30.09 848 25.04 -11.7 10.9 76 -15.1 4.8
18:40 1019 30.09 848 25.04 -11.8 10.9 76 -15.2 4.6
18:45 1019 30.09 848 25.04 -11.7 10.9 76 -15.2 4.6
18:50 1019 30.09 848 25.04 -12 10.5 76 -15.5 4.2
18:55 1019 30.09 848 25.04 -12.3 9.8 79 -15.3 4.5
19:00 1019 30.09 848 25.04 -12.3 9.8 79 -15.3 4.4
19:05 1019 30.09 848 25.04 -12.4 9.8 78 -15.4 4.2
19:10 1019 30.09 848 25.04 -12.6 9.4 77 -15.7 3.7
19:15 1019 30.09 848 25.04 -12.8 9 76 -16.1 3
19:20 1019 30.09 848 25.04 -13.1 8.5 77 -16.4 2.6
19:25 1019 30.09 848 25.04 -13.2 8.3 79 -16.1 3
19:30 1019 30.09 848 25.04 -13.1 8.4 80 -15.9 3.3
19:35 1019 30.09 848 25.04 -12.9 8.8 80 -15.7 3.8
19:40 1019 30.09 848 25.04 -12.6 9.3 80 -15.4 4.2
19:45 1019 30.09 848 25.04 -12.4 9.7 75 -15.9 3.4
19:50 1019 30.09 848 25.04 -12.8 9 78 -15.8 3.5
19:55 1019 30.09 848 25.04 -13.2 8.3 77 -16.5 2.3
20:00 1019 30.09 849 25.07 -13.8 7.2 84 -16 3.2
20:05 1019 30.09 849 25.07 -13 8.6 81 -15.6 3.8
20:10 1019 30.09 849 25.07 -12.9 8.8 80 -15.7 3.8
20:15 1020 30.12 849 25.07 -13 8.5 81 -15.7 3.7
20:20 1020 30.12 849 25.07 -12.9 8.7 82 -15.4 4.4
20:25 1019 30.09 849 25.07 -12.3 9.9 78 -15.4 4.3
20:30 1020 30.12 849 25.07 -13 8.6 79 -15.9 3.4
20:35 1020 30.12 849 25.07 -13.6 7.6 84 -15.7 3.7
20:40 1020 30.12 849 25.07 -13 8.7 83 -15.2 4.6
20:45 1020 30.12 849 25.07 -12.8 9 81 -15.4 4.4
20:50 1020 30.12 849 25.07 -12.9 8.8 82 -15.4 4.3
20:55 1020 30.12 849 25.07 -12.8 9 80 -15.6 3.9
21:00 1020 30.12 849 25.07 -13 8.7 82 -15.4 4.2
21:05 1020 30.12 849 25.07 -12.7 9.2 82 -15.2 4.6
21:10 1020 30.12 849 25.07 -12.6 9.3 82 -15.1 4.8
21:15 1020 30.12 849 25.07 -13 8.6 82 -15.4 4.3
21:20 1020 30.12 849 25.07 -12.9 8.7 83 -15.2 4.6
21:25 1020 30.12 849 25.07 -12.6 9.3 81 -15.2 4.6
21:30 1020 30.12 849 25.07 -12.8 9 80 -15.6 4
21:35 1020 30.12 849 25.07 -13.3 8 82 -15.7 3.7
21:40 1020 30.12 849 25.07 -13.1 8.4 82 -15.6 4
21:45 1020 30.12 849 25.07 -13.2 8.2 84 -15.3 4.4
21:50 1020 30.12 850 25.1 -12.9 8.8 86 -14.7 5.5
21:55 1020 30.12 849 25.07 -11.9 10.6 83 -14.2 6.5
22:00 1020 30.12 850 25.1 -11.4 11.4 78 -14.6 5.7
22:05 1021 30.15 850 25.1 -12.7 9.1 84 -14.8 5.3
22:10 1021 30.15 850 25.1 -12.8 8.9 82 -15.3 4.5
22:15 1021 30.15 850 25.1 -12.5 9.4 79 -15.5 4.1
22:20 1021 30.15 850 25.1 -13 8.7 82 -15.4 4.3
22:25 1021 30.15 850 25.1 -12.8 8.9 82 -15.2 4.6
22:30 1021 30.15 850 25.1 -12.8 8.9 79 -15.8 3.6
22:35 1021 30.15 850 25.1 -13.6 7.5 82 -16.1 3.1
22:40 1021 30.15 850 25.1 -13.4 8 82 -15.9 3.4
22:45 1021 30.15 850 25.1 -13.3 8.1 79 -16.2 2.8
22:50 1021 30.15 850 25.1 -13.5 7.7 81 -16.1 3.1
22:55 1021 30.15 850 25.1 -13.4 7.8 81 -16 3.2
23:00 1021 30.15 850 25.1 -13.8 7.2 86 -15.6 3.9
23:05 1021 30.15 850 25.1 -13 8.6 85 -15 4.9
23:10 1021 30.15 850 25.1 -12.3 10 80 -15 5
23:15 1021 30.15 850 25.1 -12.4 9.8 79 -15.4 4.4
23:20 1021 30.15 850 25.1 -12.9 8.8 78 -16 3.2
23:25 1021 30.15 850 25.1 -13.1 8.5 84 -15.3 4.5
23:30 1021 30.15 850 25.1 -12.4 9.7 82 -14.9 5.1
23:35 1021 30.15 850 25.1 -12.7 9.1 82 -15.2 4.7
23:40 1021 30.15 850 25.1 -12.8 9 82 -15.2 4.7
23:45 1021 30.15 850 25.1 -12.3 9.8 80 -15.1 4.9
23:50 1021 30.15 850 25.1 -12.7 9.1 80 -15.5 4.1
23:55 1021 30.15 850 25.1 -13.2 8.2 83 -15.6 3.9
24:00 1021 30.15 850 25.1 -13.1 8.5 83 -15.3 4.4